2022年7月1日

时间 代码 天气 温度 能见度 天花板 METAR/SPECI
9:30 下午
V
73 °F 6¼ mi+ - 110° 110° 5 kt METAR LFMT 011930Z AUTO 11005KT CAVOK 23/18 Q1016 NOSIG
9:00 下午
V
77 °F 6¼ mi+ - 120° 120° 7 kt METAR LFMT 011900Z AUTO 12007KT 090V220 CAVOK 25/19 Q1016 NOSIG
8:30 下午
V
82 °F 6¼ mi+ - 220° 220° 5 kt METAR LFMT 011830Z AUTO 22005KT CAVOK 28/12 Q1016 NOSIG
8:00 下午
V
84 °F 6¼ mi+ - 210° 210° 6 kt METAR LFMT 011800Z AUTO 21006KT CAVOK 29/12 Q1015 NOSIG
7:30 下午
V
82 °F 6¼ mi+ - 210° 210° 8 kt METAR LFMT 011730Z AUTO 21008KT CAVOK 28/14 Q1015 NOSIG
7:00 下午
V
81 °F 6¼ mi+ - 210° 210° 10 kt METAR LFMT 011700Z AUTO 21010KT CAVOK 27/13 Q1015 BECMG 31004KT
6:30 下午
V
82 °F 6¼ mi+ - 200° 200° 10 kt METAR LFMT 011630Z AUTO 20010KT CAVOK 28/15 Q1015 BECMG 31004KT
6:00 下午
V
82 °F 6¼ mi+ - 190° 190° 10 kt METAR LFMT 011600Z AUTO 19010KT CAVOK 28/14 Q1016 NOSIG
5:30 下午
V
82 °F 6¼ mi+ - 180° 180° 10 kt METAR LFMT 011530Z AUTO 18010KT CAVOK 28/11 Q1016 NOSIG
5:00 下午
V
82 °F 6¼ mi+ - 180° 180° 8 kt METAR LFMT 011500Z AUTO 18008KT CAVOK 28/09 Q1016 NOSIG
4:30 下午
V
82 °F 6¼ mi+ - 180° 180° 10 kt METAR LFMT 011430Z AUTO 18010KT 150V210 CAVOK 28/08 Q1016 NOSIG
4:00 下午
V
81 °F 6¼ mi+ - 180° 180° 10 kt METAR LFMT 011400Z AUTO 18010KT CAVOK 27/09 Q1016 NOSIG
3:30 下午
V
81 °F 6¼ mi+ - 180° 180° 8 kt METAR LFMT 011330Z AUTO 18008KT CAVOK 27/10 Q1016 NOSIG
3:00 下午
V
81 °F 6¼ mi+ - 190° 190° 10 kt METAR LFMT 011300Z AUTO 19010KT CAVOK 27/12 Q1016 NOSIG
2:30 下午
V
82 °F 6¼ mi+ - 190° 190° 9 kt METAR LFMT 011230Z AUTO 19009KT CAVOK 28/12 Q1016 NOSIG
2:00 下午
V
82 °F 6¼ mi+ - 330° 330° 10 kt METAR LFMT 011200Z AUTO 33010KT 270V010 CAVOK 28/06 Q1016 BECMG 17010KT
1:30 下午
V
81 °F 6¼ mi+ - 340° 340° 5 kt METAR LFMT 011130Z AUTO 34005KT 270V050 CAVOK 27/05 Q1017 BECMG 17010KT
1:00 下午
V
81 °F 6¼ mi+ - 350° 350° 8 kt METAR LFMT 011100Z AUTO 35008KT 270V070 CAVOK 27/05 Q1017 BECMG 17010KT
12:30 下午
V
79 °F 6¼ mi+ - 360° 360° 10 kt METAR LFMT 011030Z AUTO 36010KT 270V050 CAVOK 26/06 Q1017 BECMG 17010KT
12:00 下午
V
77 °F 6¼ mi+ - 020° 020° 7 kt METAR LFMT 011000Z AUTO 02007KT 320V070 CAVOK 25/07 Q1017 BECMG 17010KT
11:30 上午
V
79 °F 6¼ mi+ - 360° 360° 10 kt METAR LFMT 010930Z AUTO 36010KT 320V050 CAVOK 26/06 Q1017 BECMG 17010KT
11:00 上午
V
77 °F 6¼ mi+ - 030° 030° 11 kt METAR LFMT 010900Z AUTO 03011KT CAVOK 25/08 Q1017 BECMG 33010KT
10:30 上午
V
75 °F 6¼ mi+ - 360° 360° 9 kt METAR LFMT 010830Z AUTO 36009KT 330V030 CAVOK 24/08 Q1017 BECMG 18012KT
10:00 上午
V
73 °F 6¼ mi+ - 320° 320° 11 kt METAR LFMT 010800Z AUTO 32011KT CAVOK 23/09 Q1017 NOSIG
9:30 上午
V
72 °F 6¼ mi+ - 320° 320° 7 kt METAR LFMT 010730Z AUTO 32007KT 280V360 CAVOK 22/10 Q1017 NOSIG
9:00 上午
V
70 °F 6¼ mi+ - 330° 330° 9 kt METAR LFMT 010700Z AUTO 33009KT 290V010 CAVOK 21/11 Q1017 NOSIG
8:30 上午
V
70 °F 6¼ mi+ - 350° 350° 10 kt METAR LFMT 010630Z AUTO 35010KT 320V020 CAVOK 21/11 Q1017 NOSIG
8:00 上午
V
68 °F 6¼ mi+ - 330° 330° 8 kt METAR LFMT 010600Z AUTO 33008KT 290V350 CAVOK 20/12 Q1017 NOSIG
7:30 上午
V
68 °F 6¼ mi+ - 310° 310° 3 kt METAR LFMT 010530Z AUTO 31003KT 270V340 CAVOK 20/12 Q1017 NOSIG
7:00 上午
V
66 °F 6¼ mi+ - 010° 010° 7 kt METAR LFMT 010500Z AUTO 01007KT 340V040 CAVOK 19/12 Q1017 NOSIG
6:30 上午
V
63 °F 6¼ mi+ - 360° 360° 6 kt METAR LFMT 010430Z AUTO 36006KT CAVOK 17/11 Q1017 NOSIG
6:00 上午
V
64 °F 6¼ mi+ - 010° 010° 5 kt METAR LFMT 010400Z AUTO 01005KT CAVOK 18/12 Q1017 TEMPO SHRA FEW040CB SCT090
5:30 上午
V
64 °F 6¼ mi+ - 010° 010° 7 kt METAR LFMT 010330Z AUTO 01007KT 340V040 CAVOK 18/12 Q1016 TEMPO SHRA FEW040CB SCT090
5:00 上午
V
66 °F 6¼ mi+ - 020° 020° 7 kt METAR LFMT 010300Z AUTO 02007KT CAVOK 19/11 Q1016 TEMPO SHRA FEW040CB SCT090
4:30 上午
V
68 °F 6¼ mi+ - 020° 020° 10 kt METAR LFMT 010230Z AUTO 02010KT CAVOK 20/11 Q1016 TEMPO SHRA FEW040CB SCT090
4:00 上午
V
70 °F 6¼ mi+ - 350° 350° 5 kt METAR LFMT 010200Z AUTO 35005KT 310V020 CAVOK 21/12 Q1016 TEMPO SCT040 FEW043CB BKN100
3:30 上午
V
68 °F 6¼ mi+ - Var Var 2 kt METAR LFMT 010130Z AUTO VRB02KT CAVOK 20/13 Q1016 TEMPO SCT040 FEW043CB BKN100
3:00 上午
V
70 °F 6¼ mi+ 5.600 ft Var Var 2 kt METAR LFMT 010100Z AUTO VRB02KT 9999 FEW048 BKN056 OVC068 21/12 Q1016 TEMPO SCT040 FEW043CB BKN100
2:30 上午
V
70 °F 6¼ mi+ 4.600 ft 330° 330° 6 kt METAR LFMT 010030Z AUTO 33006KT 9999 OVC046 21/12 Q1016 TEMPO SCT040 FEW043CB BKN100
2:00 上午
V
70 °F 6¼ mi+ 4.400 ft 350° 350° 5 kt METAR LFMT 010000Z AUTO 35005KT 9999 BKN044 OVC056 21/13 Q1016 TEMPO SCT040 FEW043CB BKN100
1:30 上午
V
70 °F 6¼ mi+ 4.100 ft 360° 360° 9 kt METAR LFMT 302330Z AUTO 36009KT 9999 OVC041 21/14 Q1016 TEMPO SCT040 FEW043CB BKN100
1:00 上午
V
70 °F 6¼ mi+ 3.800 ft 350° 350° 5 kt METAR LFMT 302300Z AUTO 35005KT 9999 BKN038 OVC140 21/14 Q1016 TEMPO SCT040 FEW043CB BKN100
12:30 上午
V
72 °F 6¼ mi+ - 360° 360° 6 kt METAR LFMT 302230Z AUTO 36006KT 9999 //////TCU 22/13 Q1015 TEMPO SCT040 FEW043CB BKN100
12:00 上午
V
72 °F 6¼ mi+ - 300° 300° 8 kt METAR LFMT 302200Z AUTO 30008KT CAVOK 22/12 Q1015 TEMPO 01010KT SCT040 FEW043CB BKN100

2022年6月30日

时间 代码 天气 温度 能见度 天花板 METAR/SPECI
11:30 下午
V
72 °F 6¼ mi+ - 300° 300° 8 kt METAR LFMT 302130Z AUTO 30008KT 9999 ///TCU 22/12 Q1014 TEMPO 01010KT SCT040 FEW043CB BKN100
11:00 下午
V
73 °F 6¼ mi+ - 310° 310° 6 kt METAR LFMT 302100Z AUTO 31006KT CAVOK 23/12 Q1014 TEMPO 01010KT SCT040 FEW043CB BKN100
10:30 下午
V
73 °F 6¼ mi+ - 300° 300° 9 kt METAR LFMT 302030Z AUTO 30009KT CAVOK 23/12 Q1014 TEMPO SHRA FEW030CB BKN040
10:00 下午
V
73 °F 6¼ mi+ - 300° 300° 10 kt METAR LFMT 302000Z AUTO 30010KT CAVOK 23/13 Q1013 TEMPO SHRA FEW030CB BKN040
9:30 下午
V
73 °F 6¼ mi+ - 290° 290° 12 kt METAR LFMT 301930Z AUTO 29012KT CAVOK 23/13 Q1013 TEMPO SHRA FEW030CB BKN040
9:00 下午
V
73 °F 6¼ mi+ - 290° 290° 11 kt METAR LFMT 301900Z AUTO 29011KT CAVOK 23/13 Q1013 TEMPO SHRA FEW030CB BKN040
8:30 下午
V
75 °F 6¼ mi+ - 290° 290° 12 kt METAR LFMT 301830Z AUTO 29012KT CAVOK 24/14 Q1013 TEMPO SHRA FEW030CB BKN040
8:00 下午
V
75 °F 6¼ mi+ - 290° 290° 13 kt METAR LFMT 301800Z AUTO 29013KT CAVOK 24/14 Q1012 TEMPO SHRA FEW030CB BKN040
7:30 下午
V
77 °F 6¼ mi+ - 280° 280° 12 kt METAR LFMT 301730Z AUTO 28012KT CAVOK 25/14 Q1012 TEMPO SHRA FEW030CB BKN040
7:00 下午
V
77 °F 6¼ mi+ - 270° 270° 12 kt METAR LFMT 301700Z AUTO 27012KT CAVOK 25/15 Q1012 TEMPO 21015KT SHRA FEW030CB BKN040
6:30 下午
V
79 °F 6¼ mi+ - 270° 270° 14 kt METAR LFMT 301630Z AUTO 27014KT CAVOK 26/15 Q1012 TEMPO 21015KT SHRA FEW030CB BKN040
6:00 下午
V
79 °F 6¼ mi+ 13.000 ft 200° 200° 11 kt METAR LFMT 301600Z AUTO 20011KT 9999 FEW027/// BKN130/// ///CB 26/17 Q1012 BECMG NSC
5:30 下午
V
79 °F 6¼ mi+ - 210° 210° 15 kt METAR LFMT 301530Z AUTO 21015KT 9999 //////CB 26/16 Q1012 BECMG NSC
5:00 下午
V
79 °F 6¼ mi+ - 220° 220° 15 kt METAR LFMT 301500Z AUTO 22015KT 9999 ///CB 26/15 Q1012 BECMG NSC
4:30 下午
V
81 °F 6¼ mi+ - 210° 210° 15 kt METAR LFMT 301430Z AUTO 21015KT CAVOK 27/16 Q1012 NOSIG
4:00 下午
V
81 °F 6¼ mi+ 12.000 ft 210° 210° 13 kt METAR LFMT 301400Z AUTO 21013KT 9999 FEW024/// BKN120/// BKN140/// ///TCU 27/17 Q1012 TEMPO FEW040CB BKN100
3:30 下午
V
82 °F 6¼ mi+ - 200° 200° 13 kt METAR LFMT 301330Z AUTO 20013KT 9999 //////TCU 28/18 Q1012 TEMPO FEW040CB BKN100
3:00 下午
V
81 °F 6¼ mi+ - 190° 190° 9 kt METAR LFMT 301300Z AUTO 19009KT 160V220 CAVOK 27/18 Q1012 TEMPO FEW040CB BKN100
2:30 下午
V
79 °F 6¼ mi+ - 180° 180° 6 kt METAR LFMT 301230Z AUTO 18006KT 150V210 CAVOK 26/19 Q1012 TEMPO FEW040CB BKN100
2:00 下午
V
79 °F 6¼ mi+ - 170° 170° 7 kt METAR LFMT 301200Z AUTO 17007KT 9999 //////TCU 26/19 Q1012 BECMG NSC
1:30 下午
V
79 °F 6¼ mi+ - 180° 180° 5 kt METAR LFMT 301130Z AUTO 18005KT 150V210 9999 //////CB 26/19 Q1012 BECMG 22015KT NSC
1:00 下午
V
79 °F 6¼ mi+ - 180° 180° 4 kt METAR LFMT 301100Z AUTO 18004KT 150V220 CAVOK 26/20 Q1012 BECMG 22015KT
12:30 下午
V
77 °F 6¼ mi+ - 170° 170° 6 kt METAR LFMT 301030Z AUTO 17006KT 140V200 CAVOK 25/19 Q1012 NOSIG
12:00 下午
V
77 °F 6¼ mi+ - 140° 140° 6 kt METAR LFMT 301000Z AUTO 14006KT 100V160 CAVOK 25/20 Q1012 NOSIG
11:30 上午
V
77 °F 6¼ mi+ - 130° 130° 4 kt METAR LFMT 300930Z AUTO 13004KT 100V170 CAVOK 25/19 Q1012 NOSIG
11:00 上午
V
79 °F 6¼ mi+ - 130° 130° 3 kt METAR LFMT 300900Z AUTO 13003KT 070V180 9999 SCT025 SCT031 26/20 Q1012 NOSIG
10:30 上午
V
77 °F 6¼ mi+ - Var Var 2 kt METAR LFMT 300830Z AUTO VRB02KT 9999 FEW021 25/20 Q1012 BECMG 07012KT
10:00 上午
V
77 °F 6¼ mi+ - Var Var 2 kt METAR LFMT 300800Z AUTO VRB02KT 9999 SCT024 25/20 Q1011 BECMG 07012KT
9:30 上午
V
75 °F 6¼ mi+ 16.000 ft Var Var 1 kt METAR LFMT 300730Z AUTO VRB01KT 9999 SCT023 SCT031 BKN160 24/19 Q1011 BECMG 07012KT
9:00 上午
V
73 °F 6¼ mi+ 16.000 ft 290° 290° 3 kt METAR LFMT 300700Z AUTO 29003KT 9999 SCT018 SCT023 BKN160 23/19 Q1012 BECMG 07012KT
8:30 上午
M
73 °F 6¼ mi+ 1.600 ft 280° 280° 6 kt METAR LFMT 300630Z AUTO 28006KT 9999 BKN016 BKN023 23/19 Q1011 BECMG 07012KT
8:00 上午
M
73 °F 6¼ mi+ 2.200 ft 150° 150° 4 kt METAR LFMT 300600Z AUTO 15004KT 120V190 9999 SCT015 BKN022 23/20 Q1011 NOSIG
7:30 上午
M
70 °F 6¼ mi+ 1.100 ft 280° 280° 3 kt METAR LFMT 300530Z AUTO 28003KT 9999 BKN011 BKN017 OVC023 21/19 Q1011 BECMG 07012KT NSC
7:00 上午
M
70 °F 6¼ mi+ 1.200 ft 260° 260° 6 kt METAR LFMT 300500Z AUTO 26006KT 9999 BKN012 21/19 Q1011 BECMG 07012KT NSC
6:30 上午
V
70 °F 6¼ mi+ - 100° 100° 5 kt METAR LFMT 300430Z AUTO 10005KT 080V150 9999 FEW011 21/20 Q1011 BECMG FEW030CB
6:00 上午
V
70 °F 6¼ mi+ - 070° 070° 13 kt METAR LFMT 300400Z AUTO 07013KT CAVOK 21/19 Q1010 BECMG VRB03KT FEW030CB
5:30 上午
V
70 °F 6¼ mi+ - 070° 070° 13 kt METAR LFMT 300330Z AUTO 07013KT CAVOK 21/19 Q1010 BECMG VRB03KT FEW030CB
5:00 上午
V
70 °F 6¼ mi+ - 070° 070° 13 kt METAR LFMT 300300Z AUTO 07013KT 9999 ///CB 21/19 Q1010 TEMPO BKN010 BECMG VRB03KT
4:30 上午
V
68 °F 6¼ mi+ - 040° 040° 9 kt METAR LFMT 300230Z AUTO 04009KT 9999 //////CB 20/17 Q1010 TEMPO BKN010
4:00 上午
V
70 °F 6¼ mi+ - 010° 010° 9 kt METAR LFMT 300200Z AUTO 01009KT 9999 TSRA ///CB 21/17 Q1011 TEMPO BKN010 BECMG NSW
3:30 上午
V
72 °F 6¼ mi+ 11.000 ft 310° 310° 7 kt METAR LFMT 300130Z AUTO 31007KT 9999 FEW011/// OVC110/// ///CB 22/18 Q1012 TEMPO BKN010
3:00 上午
V
70 °F 6¼ mi+ 15.000 ft 310° 310° 6 kt METAR LFMT 300100Z AUTO 31006KT 9999 SCT010 SCT100 OVC150 21/19 Q1012 NOSIG
2:30 上午
V
68 °F 6¼ mi+ - Var Var 2 kt METAR LFMT 300030Z AUTO VRB02KT CAVOK 20/17 Q1011 NOSIG
2:00 上午
V
68 °F 6¼ mi+ - 190° 190° 3 kt METAR LFMT 300000Z AUTO 19003KT 160V220 CAVOK 20/17 Q1011 NOSIG
1:30 上午
V
68 °F 6¼ mi+ - 150° 150° 5 kt METAR LFMT 292330Z AUTO 15005KT CAVOK 20/18 Q1011 NOSIG
1:00 上午
V
68 °F 6¼ mi+ - Var Var 2 kt METAR LFMT 292300Z AUTO VRB02KT CAVOK 20/18 Q1011 NOSIG
12:30 上午
V
68 °F 6¼ mi+ - Var 000° 0 kt METAR LFMT 292230Z AUTO 00000KT CAVOK 20/17 Q1011 NOSIG
12:00 上午
V
68 °F 6¼ mi+ - Var Var 1 kt METAR LFMT 292200Z AUTO VRB01KT CAVOK 20/16 Q1011 NOSIG

2022年6月29日

时间 代码 天气 温度 能见度 天花板 METAR/SPECI
11:30 下午
V
70 °F 6¼ mi+ - 260° 260° 1 kt METAR LFMT 292130Z AUTO 26001KT CAVOK 21/17 Q1011 NOSIG
11:00 下午
V
73 °F 6¼ mi+ - 260° 260° 3 kt METAR LFMT 292100Z AUTO 26003KT CAVOK 23/18 Q1011 NOSIG
10:30 下午
V
73 °F 6¼ mi+ - 240° 240° 3 kt METAR LFMT 292030Z AUTO 24003KT CAVOK 23/18 Q1011 NOSIG
10:00 下午
V
75 °F 6¼ mi+ - 230° 230° 8 kt METAR LFMT 292000Z AUTO 23008KT CAVOK 24/19 Q1011 NOSIG
9:30 下午
V
75 °F 6¼ mi+ - 230° 230° 10 kt METAR LFMT 291930Z AUTO 23010KT CAVOK 24/18 Q1011 NOSIG
9:00 下午
V
77 °F 6¼ mi+ - 230° 230° 11 kt METAR LFMT 291900Z AUTO 23011KT CAVOK 25/19 Q1010 NOSIG
8:30 下午
V
77 °F 6¼ mi+ - 230° 230° 14 kt METAR LFMT 291830Z AUTO 23014KT CAVOK 25/19 Q1010 NOSIG
8:00 下午
V
79 °F 6¼ mi+ - 220° 220° 14 kt METAR LFMT 291800Z AUTO 22014KT CAVOK 26/19 Q1010 NOSIG
7:30 下午
V
79 °F 6¼ mi+ - 230° 230° 15 kt METAR LFMT 291730Z AUTO 23015KT CAVOK 26/17 Q1010 NOSIG
7:00 下午
V
81 °F 6¼ mi+ - 220° 220° 15 kt METAR LFMT 291700Z AUTO 22015KT CAVOK 27/16 Q1010 NOSIG
6:30 下午
V
81 °F 6¼ mi+ - 220° 220° 13 kt METAR LFMT 291630Z AUTO 22013KT CAVOK 27/16 Q1010 NOSIG
6:00 下午
V
81 °F 6¼ mi+ - 220° 220° 15 kt METAR LFMT 291600Z AUTO 22015KT CAVOK 27/14 Q1011 NOSIG
5:30 下午
V
82 °F 6¼ mi+ - 210° 210° 14 kt METAR LFMT 291530Z AUTO 21014KT CAVOK 28/15 Q1011 NOSIG
5:00 下午
M
82 °F 3¾ mi - 210° 210° 13 kt METAR LFMT 291500Z AUTO 21013KT 6000 NSC 28/15 Q1011 NOSIG
较旧的数据

下载我们的应用程序

在您的手机和平板电脑上轻松访问所有航空天气。
有许多网站上没有的功能,如离线支持和个人机场列表。

Studio Eveline

Benalmádena
España

我们和第三方通过cookies跟踪您在我们网站上的上网行为。如果您继续,我们认为您同意我们的cookie政策。 了解更多